sensor_id;sensor_type;location;lat;lon;timestamp;pressure;altitude;pressure_sealevel;temperature;humidity
1736;BME280;865;53.672;10.250;2022-07-06T00:01:54;101730.19;;;14.13;84.12
1736;BME280;865;53.672;10.250;2022-07-06T00:04:21;101725.81;;;14.13;84.24
1736;BME280;865;53.672;10.250;2022-07-06T00:06:48;101724.09;;;14.11;84.11
1736;BME280;865;53.672;10.250;2022-07-06T00:09:15;101726.66;;;14.14;84.32
1736;BME280;865;53.672;10.250;2022-07-06T00:11:42;101717.81;;;14.20;84.37
1736;BME280;865;53.672;10.250;2022-07-06T00:14:08;101719.41;;;14.27;84.07
1736;BME280;865;53.672;10.250;2022-07-06T00:16:34;101721.25;;;14.23;84.01
1736;BME280;865;53.672;10.250;2022-07-06T00:19:01;101720.56;;;14.12;84.32
1736;BME280;865;53.672;10.250;2022-07-06T00:21:28;101729.31;;;14.12;84.70
1736;BME280;865;53.672;10.250;2022-07-06T00:23:54;101733.69;;;14.13;84.99
1736;BME280;865;53.672;10.250;2022-07-06T00:26:21;101737.16;;;14.14;84.92
1736;BME280;865;53.672;10.250;2022-07-06T00:28:47;101731.97;;;14.11;85.03
1736;BME280;865;53.672;10.250;2022-07-06T00:31:14;101737.47;;;13.97;85.42
1736;BME280;865;53.672;10.250;2022-07-06T00:33:40;101734.78;;;14.00;85.91
1736;BME280;865;53.672;10.250;2022-07-06T00:36:07;101733.81;;;14.07;86.06
1736;BME280;865;53.672;10.250;2022-07-06T00:38:33;101730.34;;;14.05;85.98
1736;BME280;865;53.672;10.250;2022-07-06T00:40:59;101731.19;;;14.07;85.99
1736;BME280;865;53.672;10.250;2022-07-06T00:43:26;101732.91;;;14.08;86.33
1736;BME280;865;53.672;10.250;2022-07-06T00:45:52;101730.34;;;14.05;86.14
1736;BME280;865;53.672;10.250;2022-07-06T00:48:19;101727.69;;;14.07;86.45
1736;BME280;865;53.672;10.250;2022-07-06T00:50:46;101728.44;;;14.13;86.50
1736;BME280;865;53.672;10.250;2022-07-06T00:53:12;101723.31;;;14.07;86.36
1736;BME280;865;53.672;10.250;2022-07-06T00:55:39;101727.59;;;14.11;86.60
1736;BME280;865;53.672;10.250;2022-07-06T00:58:07;101723.31;;;14.06;86.69
1736;BME280;865;53.672;10.250;2022-07-06T01:00:34;101728.34;;;14.18;86.44
1736;BME280;865;53.672;10.250;2022-07-06T01:03:01;101725.88;;;14.10;86.30
1736;BME280;865;53.672;10.250;2022-07-06T01:05:28;101731.13;;;14.10;86.59
1736;BME280;865;53.672;10.250;2022-07-06T01:07:55;101727.63;;;14.10;86.78
1736;BME280;865;53.672;10.250;2022-07-06T01:10:22;101731.19;;;14.06;86.67
1736;BME280;865;53.672;10.250;2022-07-06T01:12:49;101726.84;;;14.05;86.79
1736;BME280;865;53.672;10.250;2022-07-06T01:15:18;101733.03;;;14.01;86.61
1736;BME280;865;53.672;10.250;2022-07-06T01:17:46;101736.50;;;14.03;86.98
1736;BME280;865;53.672;10.250;2022-07-06T01:20:18;101735.69;;;13.99;86.84
1736;BME280;865;53.672;10.250;2022-07-06T01:22:46;101733.28;;;13.87;87.17
1736;BME280;865;53.672;10.250;2022-07-06T01:25:14;101731.53;;;13.86;87.25
1736;BME280;865;53.672;10.250;2022-07-06T01:27:41;101726.41;;;13.80;87.38
1736;BME280;865;53.672;10.250;2022-07-06T01:30:10;101728.16;;;13.81;87.43
1736;BME280;865;53.672;10.250;2022-07-06T01:32:38;101720.34;;;13.76;87.46
1736;BME280;865;53.672;10.250;2022-07-06T01:35:06;101727.34;;;13.76;87.60
1736;BME280;865;53.672;10.250;2022-07-06T01:37:33;101723.72;;;13.83;87.33
1736;BME280;865;53.672;10.250;2022-07-06T01:40:01;101721.22;;;13.77;87.47
1736;BME280;865;53.672;10.250;2022-07-06T01:42:28;101724.78;;;13.73;87.08
1736;BME280;865;53.672;10.250;2022-07-06T01:44:54;101724.94;;;13.63;87.77
1736;BME280;865;53.672;10.250;2022-07-06T01:47:24;101717.19;;;13.56;87.98
1736;BME280;865;53.672;10.250;2022-07-06T01:49:51;101721.41;;;13.66;88.09
1736;BME280;865;53.672;10.250;2022-07-06T01:52:17;101716.19;;;13.64;87.87
1736;BME280;865;53.672;10.250;2022-07-06T01:54:44;101712.75;;;13.62;87.76
1736;BME280;865;53.672;10.250;2022-07-06T01:57:10;101717.97;;;13.62;87.76
1736;BME280;865;53.672;10.250;2022-07-06T01:59:37;101724.00;;;13.67;87.77
1736;BME280;865;53.672;10.250;2022-07-06T02:02:03;101721.38;;;13.67;87.77
1736;BME280;865;53.672;10.250;2022-07-06T02:04:30;101724.03;;;13.66;87.89
1736;BME280;865;53.672;10.250;2022-07-06T02:06:57;101720.50;;;13.67;87.85
1736;BME280;865;53.672;10.250;2022-07-06T02:09:24;101727.41;;;13.71;87.11
1736;BME280;865;53.672;10.250;2022-07-06T02:11:50;101728.41;;;13.65;87.56
1736;BME280;865;53.672;10.250;2022-07-06T02:14:16;101735.44;;;13.63;87.37
1736;BME280;865;53.672;10.250;2022-07-06T02:16:43;101734.56;;;13.63;87.05
1736;BME280;865;53.672;10.250;2022-07-06T02:19:09;101739.03;;;13.56;87.51
1736;BME280;865;53.672;10.250;2022-07-06T02:21:36;101744.44;;;13.45;88.30
1736;BME280;865;53.672;10.250;2022-07-06T02:24:02;101749.16;;;13.20;88.16
1736;BME280;865;53.672;10.250;2022-07-06T02:26:29;101739.97;;;12.90;86.94
1736;BME280;865;53.672;10.250;2022-07-06T02:28:55;101748.09;;;12.70;87.37
1736;BME280;865;53.672;10.250;2022-07-06T02:31:21;101737.63;;;12.70;88.51
1736;BME280;865;53.672;10.250;2022-07-06T02:33:48;101729.69;;;12.76;88.47
1736;BME280;865;53.672;10.250;2022-07-06T02:36:14;101727.84;;;12.82;88.46
1736;BME280;865;53.672;10.250;2022-07-06T02:38:41;101732.09;;;12.92;88.20
1736;BME280;865;53.672;10.250;2022-07-06T02:41:07;101723.25;;;12.99;87.26
1736;BME280;865;53.672;10.250;2022-07-06T02:43:34;101718.91;;;12.98;85.95
1736;BME280;865;53.672;10.250;2022-07-06T02:46:00;101722.34;;;13.02;86.27
1736;BME280;865;53.672;10.250;2022-07-06T02:48:27;101718.06;;;12.96;86.01
1736;BME280;865;53.672;10.250;2022-07-06T02:50:53;101711.03;;;13.01;85.73
1736;BME280;865;53.672;10.250;2022-07-06T02:53:19;101707.38;;;13.11;85.63
1736;BME280;865;53.672;10.250;2022-07-06T02:55:46;101714.44;;;13.06;85.83
1736;BME280;865;53.672;10.250;2022-07-06T02:58:12;101710.03;;;13.10;85.95
1736;BME280;865;53.672;10.250;2022-07-06T03:00:39;101715.31;;;13.05;86.10
1736;BME280;865;53.672;10.250;2022-07-06T03:03:05;101713.59;;;13.04;85.98
1736;BME280;865;53.672;10.250;2022-07-06T03:05:32;101713.53;;;13.07;86.62
1736;BME280;865;53.672;10.250;2022-07-06T03:07:59;101716.16;;;13.07;86.36
1736;BME280;865;53.672;10.250;2022-07-06T03:10:25;101725.75;;;13.08;86.44
1736;BME280;865;53.672;10.250;2022-07-06T03:12:51;101722.25;;;13.09;87.07
1736;BME280;865;53.672;10.250;2022-07-06T03:15:18;101723.09;;;13.11;87.16
1736;BME280;865;53.672;10.250;2022-07-06T03:17:44;101728.31;;;13.13;87.48
1736;BME280;865;53.672;10.250;2022-07-06T03:20:11;101726.53;;;13.15;87.49
1736;BME280;865;53.672;10.250;2022-07-06T03:22:37;101734.38;;;13.16;87.53
1736;BME280;865;53.672;10.250;2022-07-06T03:25:04;101736.13;;;13.14;88.19
1736;BME280;865;53.672;10.250;2022-07-06T03:27:31;101738.75;;;13.14;88.37
1736;BME280;865;53.672;10.250;2022-07-06T03:29:57;101743.03;;;13.21;88.37
1736;BME280;865;53.672;10.250;2022-07-06T03:32:23;101737.88;;;13.15;88.97
1736;BME280;865;53.672;10.250;2022-07-06T03:34:50;101731.84;;;13.12;89.74
1736;BME280;865;53.672;10.250;2022-07-06T03:37:16;101734.31;;;13.21;90.71
1736;BME280;865;53.672;10.250;2022-07-06T03:39:42;101734.28;;;13.22;91.35
1736;BME280;865;53.672;10.250;2022-07-06T03:42:09;101729.09;;;13.19;91.16
1736;BME280;865;53.672;10.250;2022-07-06T03:44:35;101737.94;;;13.12;91.80
1736;BME280;865;53.672;10.250;2022-07-06T03:47:02;101736.22;;;13.08;92.33
1736;BME280;865;53.672;10.250;2022-07-06T03:49:28;101734.41;;;13.13;92.83
1736;BME280;865;53.672;10.250;2022-07-06T03:51:55;101732.59;;;13.18;93.16
1736;BME280;865;53.672;10.250;2022-07-06T03:54:21;101732.56;;;13.21;92.99
1736;BME280;865;53.672;10.250;2022-07-06T03:56:48;101725.53;;;13.25;92.89
1736;BME280;865;53.672;10.250;2022-07-06T03:59:14;101725.53;;;13.27;92.81
1736;BME280;865;53.672;10.250;2022-07-06T04:01:41;101733.41;;;13.27;92.84
1736;BME280;865;53.672;10.250;2022-07-06T04:04:08;101727.22;;;13.31;92.82
1736;BME280;865;53.672;10.250;2022-07-06T04:06:34;101729.06;;;13.21;92.26
1736;BME280;865;53.672;10.250;2022-07-06T04:09:01;101735.97;;;13.30;92.84
1736;BME280;865;53.672;10.250;2022-07-06T04:11:27;101736.78;;;13.32;92.26
1736;BME280;865;53.672;10.250;2022-07-06T04:13:54;101735.88;;;13.36;91.83
1736;BME280;865;53.672;10.250;2022-07-06T04:16:20;101735.88;;;13.36;91.71
1736;BME280;865;53.672;10.250;2022-07-06T04:18:47;101737.59;;;13.37;91.69
1736;BME280;865;53.672;10.250;2022-07-06T04:21:13;101742.84;;;13.37;91.28
1736;BME280;865;53.672;10.250;2022-07-06T04:23:41;101740.22;;;13.37;91.22
1736;BME280;865;53.672;10.250;2022-07-06T04:26:07;101746.31;;;13.39;91.01
1736;BME280;865;53.672;10.250;2022-07-06T04:28:34;101733.25;;;13.34;90.80
1736;BME280;865;53.672;10.250;2022-07-06T04:31:00;101731.44;;;13.38;90.89
1736;BME280;865;53.672;10.250;2022-07-06T04:33:26;101727.13;;;13.37;91.18
1736;BME280;865;53.672;10.250;2022-07-06T04:35:53;101737.53;;;13.40;90.92
1736;BME280;865;53.672;10.250;2022-07-06T04:38:19;101733.16;;;13.42;90.81
1736;BME280;865;53.672;10.250;2022-07-06T04:40:46;101737.41;;;13.49;90.40
1736;BME280;865;53.672;10.250;2022-07-06T04:43:13;101731.59;;;13.29;90.30
1736;BME280;865;53.672;10.250;2022-07-06T04:45:39;101732.44;;;13.31;90.90
1736;BME280;865;53.672;10.250;2022-07-06T04:48:06;101731.50;;;13.35;91.11
1736;BME280;865;53.672;10.250;2022-07-06T04:50:34;101735.06;;;13.31;90.66
1736;BME280;865;53.672;10.250;2022-07-06T04:53:05;101732.34;;;13.37;90.75
1736;BME280;865;53.672;10.250;2022-07-06T04:55:32;101734.91;;;13.41;90.72
1736;BME280;865;53.672;10.250;2022-07-06T04:57:58;101736.59;;;13.45;90.52
1736;BME280;865;53.672;10.250;2022-07-06T05:00:25;101741.03;;;13.40;90.16
1736;BME280;865;53.672;10.250;2022-07-06T05:02:51;101739.34;;;13.36;90.77
1736;BME280;865;53.672;10.250;2022-07-06T05:05:18;101742.84;;;13.37;91.68
1736;BME280;865;53.672;10.250;2022-07-06T05:07:44;101747.13;;;13.42;92.52
1736;BME280;865;53.672;10.250;2022-07-06T05:10:12;101749.91;;;13.32;94.01
1736;BME280;865;53.672;10.250;2022-07-06T05:12:39;101746.47;;;13.23;95.04
1736;BME280;865;53.672;10.250;2022-07-06T05:15:06;101749.22;;;13.14;95.73
1736;BME280;865;53.672;10.250;2022-07-06T05:17:32;101745.75;;;13.15;95.89
1736;BME280;865;53.672;10.250;2022-07-06T05:19:59;101755.28;;;13.19;96.29
1736;BME280;865;53.672;10.250;2022-07-06T05:22:26;101758.81;;;13.17;97.12
1736;BME280;865;53.672;10.250;2022-07-06T05:24:52;101750.94;;;13.17;97.02
1736;BME280;865;53.672;10.250;2022-07-06T05:27:19;101751.75;;;13.20;97.44
1736;BME280;865;53.672;10.250;2022-07-06T05:29:45;101761.38;;;13.20;97.75
1736;BME280;865;53.672;10.250;2022-07-06T05:32:12;101771.13;;;13.12;97.66
1736;BME280;865;53.672;10.250;2022-07-06T05:34:38;101767.75;;;13.02;97.28
1736;BME280;865;53.672;10.250;2022-07-06T05:37:06;101766.91;;;13.00;97.55
1736;BME280;865;53.672;10.250;2022-07-06T05:39:32;101767.66;;;13.08;98.02
1736;BME280;865;53.672;10.250;2022-07-06T05:41:59;101765.94;;;13.07;98.40
1736;BME280;865;53.672;10.250;2022-07-06T05:44:25;101765.00;;;13.11;98.48
1736;BME280;865;53.672;10.250;2022-07-06T05:46:52;101762.31;;;13.16;98.35
1736;BME280;865;53.672;10.250;2022-07-06T05:49:38;101769.13;;;13.31;98.38
1736;BME280;865;53.672;10.250;2022-07-06T05:52:23;101763.84;;;13.32;97.99
1736;BME280;865;53.672;10.250;2022-07-06T05:54:50;101765.47;;;13.41;97.52
1736;BME280;865;53.672;10.250;2022-07-06T05:57:16;101764.50;;;13.48;97.44
1736;BME280;865;53.672;10.250;2022-07-06T05:59:44;101771.31;;;13.60;97.67
1736;BME280;865;53.672;10.250;2022-07-06T06:02:10;101769.41;;;13.68;97.06
1736;BME280;865;53.672;10.250;2022-07-06T06:04:37;101766.72;;;13.74;97.16
1736;BME280;865;53.672;10.250;2022-07-06T06:07:03;101760.78;;;13.63;96.57
1736;BME280;865;53.672;10.250;2022-07-06T06:09:30;101764.97;;;13.75;96.79
1736;BME280;865;53.672;10.250;2022-07-06T06:11:56;101775.47;;;13.75;95.77
1736;BME280;865;53.672;10.250;2022-07-06T06:14:22;101762.94;;;13.92;95.60
1736;BME280;865;53.672;10.250;2022-07-06T06:16:49;101770.66;;;14.00;94.86
1736;BME280;865;53.672;10.250;2022-07-06T06:19:15;101776.88;;;13.94;94.62
1736;BME280;865;53.672;10.250;2022-07-06T06:21:42;101775.84;;;14.03;94.71
1736;BME280;865;53.672;10.250;2022-07-06T06:24:08;101773.38;;;13.95;93.48
1736;BME280;865;53.672;10.250;2022-07-06T06:26:35;101780.44;;;13.90;94.28
1736;BME280;865;53.672;10.250;2022-07-06T06:29:01;101776.88;;;13.94;94.67
1736;BME280;865;53.672;10.250;2022-07-06T06:31:27;101768.03;;;14.01;94.05
1736;BME280;865;53.672;10.250;2022-07-06T06:33:54;101775.91;;;14.00;93.53
1736;BME280;865;53.672;10.250;2022-07-06T06:36:20;101772.38;;;14.02;93.70
1736;BME280;865;53.672;10.250;2022-07-06T06:38:47;101777.44;;;14.13;93.63
1736;BME280;865;53.672;10.250;2022-07-06T06:41:21;101767.84;;;14.10;92.82
1736;BME280;865;53.672;10.250;2022-07-06T06:43:48;101778.41;;;14.07;92.34
1736;BME280;865;53.672;10.250;2022-07-06T06:46:14;101782.91;;;13.98;92.66
1736;BME280;865;53.672;10.250;2022-07-06T06:48:41;101778.34;;;14.10;93.16
1736;BME280;865;53.672;10.250;2022-07-06T06:51:07;101786.00;;;14.23;92.28
1736;BME280;865;53.672;10.250;2022-07-06T06:53:34;101788.69;;;14.20;91.53
1736;BME280;865;53.672;10.250;2022-07-06T06:56:05;101786.84;;;14.25;91.52
1736;BME280;865;53.672;10.250;2022-07-06T06:58:32;101790.97;;;14.36;92.12
1736;BME280;865;53.672;10.250;2022-07-06T07:01:18;101791.19;;;14.26;90.14
1736;BME280;865;53.672;10.250;2022-07-06T07:03:45;101796.28;;;14.33;90.60
1736;BME280;865;53.672;10.250;2022-07-06T07:06:11;101793.31;;;14.55;90.74
1736;BME280;865;53.672;10.250;2022-07-06T07:08:38;101794.38;;;14.88;89.53
1736;BME280;865;53.672;10.250;2022-07-06T07:11:04;101786.59;;;14.84;87.89
1736;BME280;865;53.672;10.250;2022-07-06T07:13:31;101789.25;;;14.82;88.26
1736;BME280;865;53.672;10.250;2022-07-06T07:15:57;101798.97;;;14.78;87.38
1736;BME280;865;53.672;10.250;2022-07-06T07:18:23;101792.22;;;14.65;86.51
1736;BME280;865;53.672;10.250;2022-07-06T07:20:51;101796.63;;;14.65;88.89
1736;BME280;865;53.672;10.250;2022-07-06T07:23:17;101800.16;;;14.62;89.50
1736;BME280;865;53.672;10.250;2022-07-06T07:25:43;101797.25;;;14.29;89.54
1736;BME280;865;53.672;10.250;2022-07-06T07:28:10;101803.84;;;14.50;91.00
1736;BME280;865;53.672;10.250;2022-07-06T07:30:36;101799.19;;;14.68;90.53
1736;BME280;865;53.672;10.250;2022-07-06T07:33:03;101800.03;;;14.70;89.57
1736;BME280;865;53.672;10.250;2022-07-06T07:35:29;101802.22;;;14.91;88.83
1736;BME280;865;53.672;10.250;2022-07-06T07:37:56;101795.91;;;14.98;85.57
1736;BME280;865;53.672;10.250;2022-07-06T07:40:22;101800.03;;;15.12;86.31
1736;BME280;865;53.672;10.250;2022-07-06T07:42:49;101806.03;;;15.17;86.55
1736;BME280;865;53.672;10.250;2022-07-06T07:45:15;101805.41;;;15.06;84.57
1736;BME280;865;53.672;10.250;2022-07-06T07:47:42;101800.44;;;14.92;84.94
1736;BME280;865;53.672;10.250;2022-07-06T07:50:09;101796.97;;;14.90;85.24
1736;BME280;865;53.672;10.250;2022-07-06T07:52:36;101803.06;;;14.93;85.25
1736;BME280;865;53.672;10.250;2022-07-06T07:55:03;101804.66;;;14.99;85.49
1736;BME280;865;53.672;10.250;2022-07-06T07:57:50;101804.84;;;14.90;84.78
1736;BME280;865;53.672;10.250;2022-07-06T08:00:16;101808.25;;;14.95;85.91
1736;BME280;865;53.672;10.250;2022-07-06T08:02:49;101811.00;;;14.90;87.32
1736;BME280;865;53.672;10.250;2022-07-06T08:05:15;101810.94;;;14.92;86.85
1736;BME280;865;53.672;10.250;2022-07-06T08:07:42;101804.91;;;14.88;87.34
1736;BME280;865;53.672;10.250;2022-07-06T08:10:10;101812.53;;;14.99;88.90
1736;BME280;865;53.672;10.250;2022-07-06T08:12:37;101810.81;;;14.98;88.19
1736;BME280;865;53.672;10.250;2022-07-06T08:15:10;101814.44;;;14.92;85.67
1736;BME280;865;53.672;10.250;2022-07-06T08:17:37;101816.06;;;14.98;87.28
1736;BME280;865;53.672;10.250;2022-07-06T08:20:06;101822.84;;;15.10;87.55
1736;BME280;865;53.672;10.250;2022-07-06T08:22:35;101813.84;;;15.20;84.82
1736;BME280;865;53.672;10.250;2022-07-06T08:25:02;101819.16;;;15.17;84.18
1736;BME280;865;53.672;10.250;2022-07-06T08:27:28;101814.22;;;15.43;84.94
1736;BME280;865;53.672;10.250;2022-07-06T08:29:55;101813.09;;;15.15;82.63
1736;BME280;865;53.672;10.250;2022-07-06T08:32:21;101813.69;;;15.27;83.80
1736;BME280;865;53.672;10.250;2022-07-06T08:35:08;101812.47;;;15.42;82.02
1736;BME280;865;53.672;10.250;2022-07-06T08:37:35;101802.25;;;15.30;78.82
1736;BME280;865;53.672;10.250;2022-07-06T08:40:03;101812.31;;;15.50;80.40
1736;BME280;865;53.672;10.250;2022-07-06T08:42:32;101802.47;;;15.58;79.36
1736;BME280;865;53.672;10.250;2022-07-06T08:45:01;101809.16;;;15.73;79.60
1736;BME280;865;53.672;10.250;2022-07-06T08:47:27;101799.22;;;15.86;79.12
1736;BME280;865;53.672;10.250;2022-07-06T08:49:54;101808.53;;;15.99;77.98
1736;BME280;865;53.672;10.250;2022-07-06T08:52:22;101808.84;;;15.87;77.77
1736;BME280;865;53.672;10.250;2022-07-06T08:54:49;101807.59;;;16.02;77.94
1736;BME280;865;53.672;10.250;2022-07-06T08:57:17;101807.28;;;16.14;78.27
1736;BME280;865;53.672;10.250;2022-07-06T08:59:43;101814.63;;;16.01;75.66
1736;BME280;865;53.672;10.250;2022-07-06T09:02:10;101807.13;;;15.86;76.68
1736;BME280;865;53.672;10.250;2022-07-06T09:04:38;101806.38;;;15.79;75.51
1736;BME280;865;53.672;10.250;2022-07-06T09:07:04;101808.53;;;15.62;75.85
1736;BME280;865;53.672;10.250;2022-07-06T09:09:31;101812.13;;;15.58;75.97
1736;BME280;865;53.672;10.250;2022-07-06T09:11:57;101809.75;;;15.47;76.47
1736;BME280;865;53.672;10.250;2022-07-06T09:14:29;101820.41;;;15.00;76.44
1736;BME280;865;53.672;10.250;2022-07-06T09:17:04;101828.13;;;14.65;80.13
1736;BME280;865;53.672;10.250;2022-07-06T09:19:32;101835.09;;;14.67;83.05
1736;BME280;865;53.672;10.250;2022-07-06T09:21:59;101833.75;;;14.43;84.57
1736;BME280;865;53.672;10.250;2022-07-06T09:24:26;101832.59;;;14.08;84.21
1736;BME280;865;53.672;10.250;2022-07-06T09:26:56;101838.00;;;13.99;83.68
1736;BME280;865;53.672;10.250;2022-07-06T09:29:31;101833.44;;;14.10;83.40
1736;BME280;865;53.672;10.250;2022-07-06T09:32:03;101841.81;;;14.32;84.30
1736;BME280;865;53.672;10.250;2022-07-06T09:34:44;101837.78;;;14.64;82.82
1736;BME280;865;53.672;10.250;2022-07-06T09:37:12;101840.75;;;14.91;80.56
1736;BME280;865;53.672;10.250;2022-07-06T09:39:39;101836.25;;;14.97;77.84
1736;BME280;865;53.672;10.250;2022-07-06T09:42:07;101840.59;;;14.98;76.20
1736;BME280;865;53.672;10.250;2022-07-06T09:44:37;101840.31;;;15.11;77.19
1736;BME280;865;53.672;10.250;2022-07-06T09:47:06;101841.75;;;15.27;74.52
1736;BME280;865;53.672;10.250;2022-07-06T09:49:36;101831.41;;;15.58;74.72
1736;BME280;865;53.672;10.250;2022-07-06T09:52:05;101840.69;;;15.34;72.14
1736;BME280;865;53.672;10.250;2022-07-06T09:54:34;101835.09;;;15.49;73.82
1736;BME280;865;53.672;10.250;2022-07-06T09:57:01;101829.81;;;15.51;71.90
1736;BME280;865;53.672;10.250;2022-07-06T09:59:35;101834.44;;;15.80;70.00
1736;BME280;865;53.672;10.250;2022-07-06T10:02:04;101837.47;;;16.01;69.02
1736;BME280;865;53.672;10.250;2022-07-06T10:04:31;101829.28;;;16.46;67.32
1736;BME280;865;53.672;10.250;2022-07-06T10:06:59;101839.91;;;16.43;65.47
1736;BME280;865;53.672;10.250;2022-07-06T10:09:27;101839.72;;;16.14;65.84
1736;BME280;865;53.672;10.250;2022-07-06T10:11:59;101828.66;;;16.36;66.14
1736;BME280;865;53.672;10.250;2022-07-06T10:14:29;101837.22;;;16.44;66.39
1736;BME280;865;53.672;10.250;2022-07-06T10:16:56;101834.50;;;16.13;67.62
1736;BME280;865;53.672;10.250;2022-07-06T10:19:25;101836.38;;;15.72;69.64
1736;BME280;865;53.672;10.250;2022-07-06T10:21:52;101830.81;;;15.45;71.13
1736;BME280;865;53.672;10.250;2022-07-06T10:24:20;101828.75;;;15.60;71.69
1736;BME280;865;53.672;10.250;2022-07-06T10:26:48;101833.53;;;15.42;72.21
1736;BME280;865;53.672;10.250;2022-07-06T10:29:15;101828.88;;;15.54;72.70
1736;BME280;865;53.672;10.250;2022-07-06T10:31:46;101827.50;;;15.76;71.16
1736;BME280;865;53.672;10.250;2022-07-06T10:34:15;101833.44;;;15.86;71.38
1736;BME280;865;53.672;10.250;2022-07-06T10:36:44;101838.09;;;15.73;71.70
1736;BME280;865;53.672;10.250;2022-07-06T10:39:11;101834.22;;;15.50;70.59
1736;BME280;865;53.672;10.250;2022-07-06T10:42:00;101836.88;;;15.49;71.96
1736;BME280;865;53.672;10.250;2022-07-06T10:44:27;101826.41;;;15.47;71.25
1736;BME280;865;53.672;10.250;2022-07-06T10:46:57;101826.91;;;15.63;69.90
1736;BME280;865;53.672;10.250;2022-07-06T10:49:25;101823.44;;;15.61;68.20
1736;BME280;865;53.672;10.250;2022-07-06T10:52:16;101818.66;;;15.41;66.27
1736;BME280;865;53.672;10.250;2022-07-06T10:54:43;101819.00;;;15.65;66.06
1736;BME280;865;53.672;10.250;2022-07-06T10:57:10;101822.94;;;15.45;66.08
1736;BME280;865;53.672;10.250;2022-07-06T10:59:41;101822.16;;;15.81;66.65
1736;BME280;865;53.672;10.250;2022-07-06T11:02:14;101815.16;;;15.80;65.02
1736;BME280;865;53.672;10.250;2022-07-06T11:04:48;101808.84;;;15.87;64.68
1736;BME280;865;53.672;10.250;2022-07-06T11:07:17;101815.13;;;15.81;65.41
1736;BME280;865;53.672;10.250;2022-07-06T11:09:57;101817.06;;;16.09;66.66
1736;BME280;865;53.672;10.250;2022-07-06T11:12:25;101813.97;;;16.27;64.63
1736;BME280;865;53.672;10.250;2022-07-06T11:14:52;101804.03;;;16.70;64.51
1736;BME280;865;53.672;10.250;2022-07-06T11:17:19;101797.50;;;16.84;63.14
1736;BME280;865;53.672;10.250;2022-07-06T11:19:56;101798.44;;;17.12;62.26
1736;BME280;865;53.672;10.250;2022-07-06T11:22:23;101797.66;;;17.38;60.30
1736;BME280;865;53.672;10.250;2022-07-06T11:24:52;101801.75;;;17.74;60.59
1736;BME280;865;53.672;10.250;2022-07-06T11:27:22;101801.22;;;17.07;58.07
1736;BME280;865;53.672;10.250;2022-07-06T11:29:49;101807.78;;;16.61;60.06
1736;BME280;865;53.672;10.250;2022-07-06T11:32:23;101794.03;;;16.82;60.16
1736;BME280;865;53.672;10.250;2022-07-06T11:34:49;101778.63;;;17.54;60.04
1736;BME280;865;53.672;10.250;2022-07-06T11:37:16;101793.47;;;17.87;58.76
1736;BME280;865;53.672;10.250;2022-07-06T11:39:45;101787.66;;;18.02;59.46
1736;BME280;865;53.672;10.250;2022-07-06T11:42:14;101776.09;;;18.06;56.29
1736;BME280;865;53.672;10.250;2022-07-06T11:44:41;101776.84;;;18.10;56.90
1736;BME280;865;53.672;10.250;2022-07-06T11:47:09;101776.97;;;18.55;57.70
1736;BME280;865;53.672;10.250;2022-07-06T11:49:38;101769.91;;;18.81;57.14
1736;BME280;865;53.672;10.250;2022-07-06T11:52:10;101768.91;;;18.60;57.07
1736;BME280;865;53.672;10.250;2022-07-06T11:54:38;101773.34;;;18.59;58.45
1736;BME280;865;53.672;10.250;2022-07-06T11:57:07;101760.16;;;18.83;58.56
1736;BME280;865;53.672;10.250;2022-07-06T11:59:36;101754.47;;;18.20;59.54
1736;BME280;865;53.672;10.250;2022-07-06T12:02:08;101756.31;;;17.38;61.50
1736;BME280;865;53.672;10.250;2022-07-06T12:04:36;101762.66;;;17.59;62.30
1736;BME280;865;53.672;10.250;2022-07-06T12:07:08;101755.47;;;17.64;62.46
1736;BME280;865;53.672;10.250;2022-07-06T12:09:37;101754.25;;;17.74;62.91
1736;BME280;865;53.672;10.250;2022-07-06T12:12:05;101760.66;;;17.67;62.70
1736;BME280;865;53.672;10.250;2022-07-06T12:14:34;101756.13;;;17.71;63.09
1736;BME280;865;53.672;10.250;2022-07-06T12:17:09;101763.81;;;17.79;63.65
1736;BME280;865;53.672;10.250;2022-07-06T12:19:37;101765.41;;;17.56;61.61
1736;BME280;865;53.672;10.250;2022-07-06T12:22:05;101757.16;;;17.39;62.15
1736;BME280;865;53.672;10.250;2022-07-06T12:24:34;101765.47;;;17.26;61.31
1736;BME280;865;53.672;10.250;2022-07-06T12:27:15;101756.75;;;17.24;59.64
1736;BME280;865;53.672;10.250;2022-07-06T12:29:42;101754.75;;;17.31;60.50
1736;BME280;865;53.672;10.250;2022-07-06T12:32:17;101756.66;;;17.54;60.81
1736;BME280;865;53.672;10.250;2022-07-06T12:34:43;101752.09;;;17.33;60.28
1736;BME280;865;53.672;10.250;2022-07-06T12:37:11;101748.72;;;17.27;59.82
1736;BME280;865;53.672;10.250;2022-07-06T12:39:43;101750.78;;;17.18;60.26
1736;BME280;865;53.672;10.250;2022-07-06T12:42:10;101746.38;;;17.18;61.08
1736;BME280;865;53.672;10.250;2022-07-06T12:44:49;101738.72;;;17.39;61.22
1736;BME280;865;53.672;10.250;2022-07-06T12:47:34;101743.19;;;17.90;60.36
1736;BME280;865;53.672;10.250;2022-07-06T12:50:08;101740.31;;;17.97;58.04
1736;BME280;865;53.672;10.250;2022-07-06T12:52:35;101742.38;;;18.38;59.02
1736;BME280;865;53.672;10.250;2022-07-06T12:55:04;101739.19;;;18.30;57.58
1736;BME280;865;53.672;10.250;2022-07-06T12:57:45;101743.38;;;17.57;58.53
1736;BME280;865;53.672;10.250;2022-07-06T13:00:12;101737.59;;;17.46;59.17
1736;BME280;865;53.672;10.250;2022-07-06T13:02:38;101739.19;;;17.23;59.75
1736;BME280;865;53.672;10.250;2022-07-06T13:05:26;101744.13;;;17.61;59.29
1736;BME280;865;53.672;10.250;2022-07-06T13:07:57;101735.38;;;17.87;56.89
1736;BME280;865;53.672;10.250;2022-07-06T13:10:24;101737.91;;;17.90;57.00
1736;BME280;865;53.672;10.250;2022-07-06T13:12:51;101732.41;;;17.69;56.50
1736;BME280;865;53.672;10.250;2022-07-06T13:15:18;101728.97;;;17.67;56.53